Time;durP1;ratioP1;P1;durP2;ratioP2;P2;SDS_P1;SDS_P2;PMS_P1;PMS_P2;Temp;Humidity;BMP_temperature;BMP_pressure;BME280_temperature;BME280_humidity;BME280_pressure;Samples;Min_cycle;Max_cycle;Signal;HPM_P1;HPM_P2
2021/12/26 00:01:04;;;;;;;2.88;1.33;;;-5.80;99.90;;;;;;5074407;28;20105;-70
2021/12/26 00:03:31;;;;;;;2.72;1.20;;;-5.70;99.90;;;;;;5073528;28;20037;-70
2021/12/26 00:06:03;;;;;;;2.25;1.15;;;-5.70;99.90;;;;;;5052068;28;20483;-70
2021/12/26 00:08:29;;;;;;;3.85;1.63;;;-5.70;99.90;;;;;;5054626;28;20132;-70
2021/12/26 00:10:55;;;;;;;3.33;2.15;;;-5.70;99.90;;;;;;5035540;28;20128;-70
2021/12/26 00:13:21;;;;;;;5.25;1.52;;;-5.70;99.90;;;;;;5065256;28;20098;-70
2021/12/26 00:15:47;;;;;;;1.80;1.20;;;-5.70;99.90;;;;;;5056019;28;20536;-70
2021/12/26 00:18:13;;;;;;;2.58;1.40;;;-5.70;99.90;;;;;;5073040;28;20057;-70
2021/12/26 00:20:40;;;;;;;3.28;1.38;;;-5.70;99.90;;;;;;5055906;28;20051;-70
2021/12/26 00:23:06;;;;;;;4.28;1.95;;;-5.70;99.90;;;;;;5074147;28;20045;-70
2021/12/26 00:25:33;;;;;;;3.50;1.33;;;-5.70;99.90;;;;;;5073310;28;20044;-70
2021/12/26 00:28:00;;;;;;;3.55;1.38;;;-5.70;99.90;;;;;;5073601;28;20119;-70
2021/12/26 00:30:26;;;;;;;2.55;1.60;;;-5.80;99.90;;;;;;5073902;28;20065;-70
2021/12/26 00:32:51;;;;;;;4.43;1.48;;;-5.80;99.90;;;;;;5038772;28;20043;-70
2021/12/26 00:35:20;;;;;;;4.55;1.50;;;-5.90;99.90;;;;;;5055203;28;20538;-70
2021/12/26 00:37:46;;;;;;;2.35;1.30;;;-6.00;99.90;;;;;;5072840;28;20059;-70
2021/12/26 00:40:14;;;;;;;2.60;1.10;;;-6.00;99.90;;;;;;5073806;28;20080;-70
2021/12/26 00:42:41;;;;;;;4.15;1.50;;;-6.00;99.90;;;;;;5073765;28;20048;-70
2021/12/26 00:45:07;;;;;;;2.55;1.65;;;-6.00;99.90;;;;;;5072835;28;20057;-70
2021/12/26 00:47:34;;;;;;;4.05;1.40;;;-6.10;99.90;;;;;;5073789;28;20488;-70
2021/12/26 00:50:01;;;;;;;4.03;1.58;;;-6.10;99.90;;;;;;5052349;28;20110;-70
2021/12/26 00:52:27;;;;;;;2.30;1.30;;;-6.10;99.90;;;;;;5050442;28;20480;-70
2021/12/26 00:54:53;;;;;;;2.67;1.05;;;-6.00;99.90;;;;;;5055551;28;20059;-70
2021/12/26 00:57:19;;;;;;;3.08;1.55;;;-6.00;99.90;;;;;;5038805;28;20045;-69
2021/12/26 00:59:45;;;;;;;2.72;1.33;;;-6.10;99.90;;;;;;5072689;28;20048;-70
2021/12/26 01:02:11;;;;;;;2.28;1.33;;;-6.00;99.90;;;;;;5073604;28;20036;-70
2021/12/26 01:04:39;;;;;;;2.78;1.10;;;-6.00;99.90;;;;;;5073435;28;20118;-70
2021/12/26 01:07:14;;;;;;;4.15;1.30;;;-6.00;99.90;;;;;;5072614;28;20048;-70
2021/12/26 01:09:43;;;;;;;3.50;1.40;;;-6.00;99.90;;;;;;5073560;28;20040;-70
2021/12/26 01:12:13;;;;;;;1.42;1.17;;;-6.10;99.90;;;;;;5073109;28;20052;-70
2021/12/26 01:14:47;;;;;;;2.47;1.25;;;-6.10;99.90;;;;;;5072664;28;20155;-70
2021/12/26 01:17:16;;;;;;;3.97;1.40;;;-6.10;99.90;;;;;;5075138;28;20036;-69
2021/12/26 01:19:47;;;;;;;4.35;1.77;;;-6.10;99.90;;;;;;5077525;28;20048;-69
2021/12/26 01:22:15;;;;;;;4.35;1.38;;;-6.10;99.90;;;;;;5076848;28;20373;-70
2021/12/26 01:24:42;;;;;;;4.20;1.10;;;-6.10;99.90;;;;;;5077970;28;20404;-69
2021/12/26 01:27:08;;;;;;;2.97;1.30;;;-6.10;99.90;;;;;;5076745;28;20055;-69
2021/12/26 01:29:35;;;;;;;1.65;1.25;;;-6.00;99.90;;;;;;5059301;28;20128;-70
2021/12/26 01:32:01;;;;;;;2.47;1.90;;;-6.00;99.90;;;;;;5077536;28;20063;-69
2021/12/26 01:34:26;;;;;;;2.35;1.40;;;-6.00;99.90;;;;;;5076190;28;20049;-69
2021/12/26 01:36:52;;;;;;;9.70;1.02;;;-6.00;99.90;;;;;;5077192;28;20032;-70
2021/12/26 01:39:18;;;;;;;5.25;1.23;;;-6.00;99.90;;;;;;5077206;28;20492;-70
2021/12/26 01:41:45;;;;;;;3.58;1.60;;;-6.00;99.90;;;;;;5058491;28;20458;-69
2021/12/26 01:44:13;;;;;;;3.17;0.95;;;-6.00;99.90;;;;;;5076807;28;20507;-69
2021/12/26 01:46:39;;;;;;;2.78;1.20;;;-6.00;99.90;;;;;;5058950;28;20044;-69
2021/12/26 01:49:22;;;;;;;1.90;1.40;;;-6.00;99.90;;;;;;5076152;28;20068;-69
2021/12/26 01:51:50;;;;;;;1.55;1.17;;;-6.10;99.90;;;;;;5076896;28;20116;-70
2021/12/26 01:54:30;;;;;;;2.45;1.20;;;-6.10;99.90;;;;;;5058503;28;20500;-69
2021/12/26 01:56:57;;;;;;;2.88;1.08;;;-6.10;99.90;;;;;;5075978;28;20087;-70
2021/12/26 01:59:23;;;;;;;3.05;1.88;;;-6.20;99.90;;;;;;5076770;28;20047;-69
2021/12/26 02:01:48;;;;;;;4.10;1.33;;;-6.20;99.90;;;;;;5076815;28;20044;-69
2021/12/26 02:04:14;;;;;;;2.63;1.38;;;-6.20;99.90;;;;;;5075635;28;20037;-69
2021/12/26 02:06:40;;;;;;;2.97;1.38;;;-6.20;99.90;;;;;;5076581;28;20067;-69
2021/12/26 02:09:07;;;;;;;3.95;1.48;;;-6.10;99.90;;;;;;5058367;28;20057;-69
2021/12/26 02:11:36;;;;;;;4.60;1.17;;;-6.10;99.90;;;;;;5076379;28;20055;-69
2021/12/26 02:14:02;;;;;;;11.93;1.30;;;-6.10;99.90;;;;;;5076069;28;20068;-69
2021/12/26 02:16:27;;;;;;;2.58;1.15;;;-6.10;99.90;;;;;;5075494;28;20570;-69
2021/12/26 02:18:53;;;;;;;2.30;1.15;;;-6.10;99.90;;;;;;5075876;28;20057;-69
2021/12/26 02:24:10;;;;;;;4.15;1.27;;;-6.10;99.90;;;;;;5057660;28;20107;-69
2021/12/26 02:29:20;;;;;;;2.47;1.00;;;-6.10;99.90;;;;;;5075732;28;20491;-69
2021/12/26 02:31:46;;;;;;;2.83;1.20;;;-6.20;99.90;;;;;;5075261;28;20057;-69
2021/12/26 02:34:12;;;;;;;1.52;1.05;;;-6.20;99.90;;;;;;5075714;28;20044;-69
2021/12/26 02:36:37;;;;;;;1.77;1.38;;;-6.20;99.90;;;;;;5076132;28;20048;-69
2021/12/26 02:39:04;;;;;;;3.60;1.23;;;-6.20;99.90;;;;;;5075594;28;20039;-69
2021/12/26 02:41:30;;;;;;;2.80;1.63;;;-6.30;99.90;;;;;;5058115;28;20055;-69
2021/12/26 02:43:56;;;;;;;1.88;1.30;;;-6.20;99.90;;;;;;5057936;28;20044;-69
2021/12/26 02:46:21;;;;;;;2.35;1.20;;;-6.20;99.90;;;;;;5057343;28;20059;-69
2021/12/26 02:48:47;;;;;;;2.75;1.02;;;-6.20;99.90;;;;;;5075583;28;20037;-70
2021/12/26 02:51:13;;;;;;;5.80;2.00;;;-6.20;99.90;;;;;;5075460;28;20048;-69
2021/12/26 02:53:40;;;;;;;2.42;1.27;;;-6.20;99.90;;;;;;5075084;28;20128;-69
2021/12/26 02:56:06;;;;;;;3.80;1.23;;;-6.20;99.90;;;;;;5057581;28;20503;-69
2021/12/26 02:58:32;;;;;;;2.17;1.20;;;-6.20;99.90;;;;;;5056810;28;20052;-69
2021/12/26 03:01:19;;;;;;;3.40;1.40;;;-6.20;99.90;;;;;;5075562;28;20048;-69
2021/12/26 03:03:45;;;;;;;2.22;1.27;;;-6.20;99.90;;;;;;5075368;28;20055;-69
2021/12/26 03:06:22;;;;;;;6.57;3.03;;;-6.20;99.90;;;;;;5057162;28;20048;-69
2021/12/26 03:08:51;;;;;;;3.85;1.45;;;-6.20;99.90;;;;;;5075348;28;20049;-69
2021/12/26 03:11:17;;;;;;;2.95;1.23;;;-6.20;99.90;;;;;;5075769;28;20055;-69
2021/12/26 03:13:43;;;;;;;1.33;1.02;;;-6.20;99.90;;;;;;5056769;28;20066;-69
2021/12/26 03:16:09;;;;;;;3.88;1.48;;;-6.20;99.90;;;;;;5075255;28;20119;-69
2021/12/26 03:18:35;;;;;;;2.50;1.08;;;-6.20;99.90;;;;;;5075006;28;20228;-69
2021/12/26 03:21:01;;;;;;;2.80;0.98;;;-6.20;99.90;;;;;;5074158;28;20063;-69
2021/12/26 03:23:27;;;;;;;2.80;1.15;;;-6.20;99.90;;;;;;5057344;28;20047;-69
2021/12/26 03:25:57;;;;;;;5.30;1.30;;;-6.20;99.90;;;;;;5075059;28;20067;-69
2021/12/26 03:28:24;;;;;;;1.95;0.95;;;-6.20;99.90;;;;;;5074286;28;20123;-69
2021/12/26 03:30:52;;;;;;;2.80;1.38;;;-6.20;99.90;;;;;;5074893;28;20048;-69
2021/12/26 03:33:20;;;;;;;4.18;1.80;;;-6.20;99.90;;;;;;5057123;28;20072;-69
2021/12/26 03:35:46;;;;;;;3.10;1.52;;;-6.20;99.90;;;;;;5073627;28;20087;-69
2021/12/26 03:38:14;;;;;;;5.18;1.30;;;-6.30;99.90;;;;;;5056842;28;20041;-69
2021/12/26 03:40:40;;;;;;;3.28;1.15;;;-6.30;99.90;;;;;;5073129;28;20048;-69
2021/12/26 03:43:07;;;;;;;3.08;0.95;;;-6.30;99.90;;;;;;5057200;28;20040;-69
2021/12/26 03:45:34;;;;;;;2.50;1.13;;;-6.30;99.90;;;;;;5074852;28;20040;-69
2021/12/26 03:47:59;;;;;;;2.38;1.17;;;-6.40;99.90;;;;;;5074010;28;20051;-69
2021/12/26 03:50:30;;;;;;;1.42;1.00;;;-6.30;99.90;;;;;;5056090;28;20052;-69
2021/12/26 03:52:57;;;;;;;3.40;1.38;;;-6.40;99.90;;;;;;5074952;28;20137;-69
2021/12/26 03:55:25;;;;;;;4.32;1.35;;;-6.40;99.90;;;;;;5073685;28;20045;-69
2021/12/26 03:57:51;;;;;;;2.25;0.98;;;-6.40;99.90;;;;;;5074745;28;20400;-69
2021/12/26 04:00:18;;;;;;;2.53;1.00;;;-6.40;99.90;;;;;;5074533;28;20052;-69
2021/12/26 04:02:45;;;;;;;2.67;1.00;;;-6.40;99.90;;;;;;5055572;28;20510;-69
2021/12/26 04:05:13;;;;;;;2.00;1.48;;;-6.40;99.90;;;;;;5074029;28;20040;-69
2021/12/26 04:07:39;;;;;;;5.75;1.17;;;-6.50;99.90;;;;;;5074290;28;20083;-69
2021/12/26 04:10:06;;;;;;;4.90;1.10;;;-6.50;99.90;;;;;;5073534;28;20060;-69
2021/12/26 04:12:36;;;;;;;3.10;1.35;;;-6.50;99.90;;;;;;5056373;28;20454;-69
2021/12/26 04:15:05;;;;;;;1.50;1.00;;;-6.50;99.90;;;;;;5074239;28;20106;-69
2021/12/26 04:17:31;;;;;;;2.58;1.27;;;-5.40;99.90;;;;;;5072928;28;20496;-69
2021/12/26 04:19:57;;;;;;;4.40;1.38;;;-6.50;99.90;;;;;;5055796;28;20095;-69
2021/12/26 04:22:23;;;;;;;2.25;1.13;;;-6.50;99.90;;;;;;5073962;28;20128;-69
2021/12/26 04:24:48;;;;;;;1.60;1.10;;;-6.50;99.90;;;;;;5055085;28;20045;-69
2021/12/26 04:27:14;;;;;;;4.22;1.17;;;-6.50;99.90;;;;;;5073846;28;20056;-69
2021/12/26 04:29:40;;;;;;;1.67;0.98;;;-6.50;99.90;;;;;;5073939;28;20040;-69
2021/12/26 04:32:06;;;;;;;2.17;1.08;;;-6.50;99.90;;;;;;5073018;28;20087;-69
2021/12/26 04:34:32;;;;;;;2.53;1.48;;;-6.50;99.90;;;;;;5073350;28;20047;-69
2021/12/26 04:37:04;;;;;;;2.22;1.40;;;-6.50;99.90;;;;;;5055189;28;20052;-69
2021/12/26 04:39:30;;;;;;;4.13;1.50;;;-6.50;99.90;;;;;;5055839;28;20048;-69
2021/12/26 04:41:55;;;;;;;2.72;1.25;;;-6.50;99.90;;;;;;5055811;28;20056;-69
2021/12/26 04:44:24;;;;;;;2.70;1.25;;;-6.50;99.90;;;;;;5072627;28;20075;-69
2021/12/26 04:46:50;;;;;;;1.20;0.93;;;-6.50;99.90;;;;;;5055688;28;20119;-69
2021/12/26 04:49:15;;;;;;;2.30;1.58;;;-6.60;99.90;;;;;;5073136;28;20124;-69
2021/12/26 04:51:41;;;;;;;2.67;1.15;;;-6.60;99.90;;;;;;5054552;28;20049;-69
2021/12/26 04:54:07;;;;;;;2.83;1.63;;;-6.60;99.90;;;;;;5073532;28;20059;-69
2021/12/26 04:56:33;;;;;;;1.88;1.10;;;-6.50;99.90;;;;;;5073674;28;20045;-69
2021/12/26 04:58:59;;;;;;;1.20;1.02;;;-6.60;99.90;;;;;;5072726;28;20131;-69
2021/12/26 05:01:25;;;;;;;2.60;1.85;;;-6.60;99.90;;;;;;5073435;28;20088;-69
2021/12/26 05:03:51;;;;;;;1.77;1.42;;;-6.50;99.90;;;;;;5055231;28;20041;-69
2021/12/26 05:06:17;;;;;;;1.92;1.00;;;-6.50;99.90;;;;;;5054672;28;20060;-69
2021/12/26 05:08:42;;;;;;;1.98;1.20;;;-6.50;99.90;;;;;;5073529;28;20131;-69
2021/12/26 05:11:08;;;;;;;4.57;1.90;;;-6.50;99.90;;;;;;5073501;28;20048;-69
2021/12/26 05:13:34;;;;;;;3.00;1.30;;;-6.50;99.90;;;;;;5054782;28;20037;-69
2021/12/26 05:16:00;;;;;;;1.55;1.20;;;-6.50;99.90;;;;;;5055317;28;20044;-69
2021/12/26 05:18:26;;;;;;;4.00;1.48;;;-6.60;99.90;;;;;;5051747;28;20477;-69
2021/12/26 05:20:52;;;;;;;2.65;1.13;;;-6.60;99.90;;;;;;5050745;28;20049;-69
2021/12/26 05:23:17;;;;;;;2.78;1.10;;;-6.60;99.90;;;;;;5052088;28;20044;-69
2021/12/26 05:25:43;;;;;;;1.40;1.00;;;-6.60;99.90;;;;;;5051821;28;20397;-69
2021/12/26 05:28:09;;;;;;;4.43;1.20;;;-6.60;99.90;;;;;;5051034;28;20049;-69
2021/12/26 05:30:35;;;;;;;1.75;1.38;;;-6.60;99.90;;;;;;5051701;28;20056;-69
2021/12/26 05:33:01;;;;;;;2.97;1.33;;;-6.60;99.90;;;;;;5052189;28;20151;-69
2021/12/26 05:35:27;;;;;;;2.10;1.23;;;-6.60;99.90;;;;;;5052085;28;20049;-69
2021/12/26 05:37:53;;;;;;;5.55;1.85;;;-6.60;99.90;;;;;;5052215;28;20045;-68
2021/12/26 05:40:19;;;;;;;1.25;1.15;;;-6.60;99.90;;;;;;5051485;28;20060;-69
2021/12/26 05:42:45;;;;;;;2.13;1.85;;;-6.60;99.90;;;;;;5052655;28;20505;-69
2021/12/26 05:45:12;;;;;;;2.50;1.23;;;-6.60;99.90;;;;;;5053209;28;20049;-69
2021/12/26 05:47:38;;;;;;;1.88;1.20;;;-6.60;99.90;;;;;;5052404;28;20079;-69
2021/12/26 05:50:07;;;;;;;2.22;1.42;;;-6.60;99.90;;;;;;5052853;28;20032;-69
2021/12/26 05:52:33;;;;;;;4.50;1.60;;;-6.60;99.90;;;;;;5052867;28;20518;-69
2021/12/26 05:54:59;;;;;;;2.65;1.48;;;-6.50;99.90;;;;;;5051058;28;20160;-69
2021/12/26 05:57:24;;;;;;;2.75;1.60;;;-6.50;99.90;;;;;;5051724;28;20041;-69
2021/12/26 05:59:50;;;;;;;2.95;1.90;;;-6.50;99.90;;;;;;5052867;28;20052;-69
2021/12/26 06:02:16;;;;;;;5.07;1.70;;;-6.50;99.90;;;;;;5050812;28;20529;-69
2021/12/26 06:04:42;;;;;;;2.80;1.60;;;-6.50;99.90;;;;;;5053761;28;20053;-69
2021/12/26 06:07:08;;;;;;;5.80;2.72;;;-6.50;99.90;;;;;;5056808;28;20385;-69
2021/12/26 06:09:34;;;;;;;3.05;1.70;;;-6.50;99.90;;;;;;5055860;28;20095;-69
2021/12/26 06:12:00;;;;;;;3.33;1.80;;;-6.50;99.90;;;;;;5055465;28;20041;-69
2021/12/26 06:14:25;;;;;;;2.60;1.75;;;-6.50;99.90;;;;;;5056261;28;20037;-69
2021/12/26 06:16:51;;;;;;;6.97;1.90;;;-6.50;99.90;;;;;;5055791;28;20419;-69
2021/12/26 06:19:17;;;;;;;3.72;1.80;;;-6.50;99.90;;;;;;5054714;28;20485;-69
2021/12/26 06:21:43;;;;;;;6.47;1.92;;;-6.50;99.90;;;;;;5056495;28;20090;-69
2021/12/26 06:24:09;;;;;;;4.13;1.90;;;-6.50;99.90;;;;;;5055421;28;20041;-69
2021/12/26 06:26:35;;;;;;;4.85;1.92;;;-6.60;99.90;;;;;;5054938;28;20046;-69
2021/12/26 06:29:02;;;;;;;3.92;1.83;;;-6.60;99.90;;;;;;5056125;28;20095;-69
2021/12/26 06:31:27;;;;;;;2.65;1.88;;;-6.60;99.90;;;;;;5055307;28;20057;-69
2021/12/26 06:33:53;;;;;;;3.75;1.90;;;-6.60;99.90;;;;;;5054566;28;20052;-69
2021/12/26 06:36:19;;;;;;;3.10;1.88;;;-6.60;99.90;;;;;;5056202;28;20037;-69
2021/12/26 06:38:46;;;;;;;4.82;2.67;;;-6.60;99.90;;;;;;5054093;28;20052;-69
2021/12/26 06:41:12;;;;;;;5.80;1.83;;;-6.60;99.90;;;;;;5056176;28;20146;-69
2021/12/26 06:43:39;;;;;;;4.38;1.98;;;-6.70;99.90;;;;;;5055325;28;20052;-69
2021/12/26 06:46:05;;;;;;;3.88;1.70;;;-6.70;99.90;;;;;;5054690;28;20076;-69
2021/12/26 06:48:32;;;;;;;3.75;1.77;;;-6.70;99.90;;;;;;5055871;28;20090;-69
2021/12/26 06:50:58;;;;;;;7.40;1.83;;;-6.70;99.90;;;;;;5054664;28;20048;-69
2021/12/26 06:53:24;;;;;;;3.95;1.83;;;-6.70;99.90;;;;;;5054420;28;20503;-69
2021/12/26 06:55:50;;;;;;;5.43;1.73;;;-6.70;99.90;;;;;;5055718;28;20048;-69
2021/12/26 06:58:17;;;;;;;3.70;1.90;;;-6.80;99.90;;;;;;5055023;28;20424;-69
2021/12/26 07:00:43;;;;;;;3.15;2.15;;;-6.70;99.90;;;;;;5053672;28;20041;-69
2021/12/26 07:03:09;;;;;;;7.13;2.33;;;-6.80;99.90;;;;;;5055664;28;20511;-68
2021/12/26 07:05:35;;;;;;;5.00;1.58;;;-6.80;99.90;;;;;;5054656;28;20045;-69
2021/12/26 07:08:01;;;;;;;7.65;2.03;;;-6.80;99.90;;;;;;5055635;28;20478;-69
2021/12/26 07:10:27;;;;;;;4.15;1.88;;;-6.80;99.90;;;;;;5055372;28;20106;-69
2021/12/26 07:12:53;;;;;;;3.97;2.08;;;-6.80;99.90;;;;;;5053499;28;20041;-69
2021/12/26 07:15:19;;;;;;;3.88;2.15;;;-6.80;99.90;;;;;;5055242;28;20037;-69
2021/12/26 07:17:45;;;;;;;3.80;1.98;;;-6.80;99.90;;;;;;5056721;28;20044;-69
2021/12/26 07:20:13;;;;;;;6.38;1.60;;;-6.80;99.90;;;;;;5074272;28;20052;-68
2021/12/26 07:22:40;;;;;;;4.47;2.00;;;-6.90;99.90;;;;;;5057290;28;20123;-68
2021/12/26 07:25:07;;;;;;;4.28;2.13;;;-6.90;99.90;;;;;;5075282;28;20052;-69
2021/12/26 07:27:33;;;;;;;3.63;1.80;;;-6.90;99.90;;;;;;5074300;28;20128;-68
2021/12/26 07:30:02;;;;;;;3.60;2.30;;;-6.90;99.90;;;;;;5055924;28;20136;-68
2021/12/26 07:32:29;;;;;;;4.82;2.22;;;-6.90;99.90;;;;;;5057182;28;20048;-68
2021/12/26 07:34:55;;;;;;;3.80;2.17;;;-6.80;99.90;;;;;;5073971;28;20044;-68
2021/12/26 07:37:21;;;;;;;5.00;2.63;;;-6.30;99.90;;;;;;5053295;28;20041;-68
2021/12/26 07:39:47;;;;;;;5.97;2.35;;;-6.80;99.90;;;;;;5054246;28;20049;-68
2021/12/26 07:42:12;;;;;;;3.83;1.95;;;-6.80;99.90;;;;;;5055213;28;20059;-68
2021/12/26 07:44:38;;;;;;;6.60;2.13;;;-6.80;99.90;;;;;;5054828;28;20041;-68
2021/12/26 07:47:05;;;;;;;4.45;1.85;;;-6.70;99.90;;;;;;5036263;28;20487;-68
2021/12/26 07:49:31;;;;;;;3.28;2.00;;;-6.70;99.90;;;;;;5061646;28;20045;-69
2021/12/26 07:51:58;;;;;;;3.13;1.85;;;-6.70;99.90;;;;;;5074724;28;20124;-68
2021/12/26 07:54:25;;;;;;;4.28;1.98;;;-6.70;99.90;;;;;;5073838;28;20113;-69
2021/12/26 07:56:53;;;;;;;8.45;3.28;;;-6.60;99.90;;;;;;5056945;28;20109;-68
2021/12/26 07:59:19;;;;;;;7.28;2.50;;;-6.60;99.90;;;;;;5074581;28;20067;-69
2021/12/26 08:01:46;;;;;;;7.72;2.40;;;-6.60;99.90;;;;;;5073576;28;20051;-69
2021/12/26 08:04:13;;;;;;;5.03;2.63;;;-6.60;99.90;;;;;;5053039;28;20045;-69
2021/12/26 08:06:40;;;;;;;4.75;2.85;;;-6.50;99.90;;;;;;5054451;28;20041;-69
2021/12/26 08:09:07;;;;;;;5.75;2.60;;;-6.50;99.90;;;;;;5053372;28;20045;-69
2021/12/26 08:11:33;;;;;;;7.30;2.08;;;-6.50;99.90;;;;;;5036906;28;20039;-69
2021/12/26 08:13:59;;;;;;;6.63;3.47;;;-6.50;99.90;;;;;;5054140;28;20479;-69
2021/12/26 08:16:26;;;;;;;6.88;2.10;;;-6.40;99.90;;;;;;5053160;28;20136;-69
2021/12/26 08:18:52;;;;;;;4.82;2.10;;;-6.40;99.90;;;;;;5055505;28;20099;-69
2021/12/26 08:21:18;;;;;;;4.13;2.10;;;-6.40;99.90;;;;;;5073907;28;20032;-69
2021/12/26 08:23:45;;;;;;;5.53;2.25;;;-6.30;99.90;;;;;;5073190;28;20131;-68
2021/12/26 08:26:11;;;;;;;6.65;2.72;;;-6.20;99.90;;;;;;5073510;28;20045;-69
2021/12/26 08:28:37;;;;;;;7.68;2.80;;;-6.20;99.90;;;;;;5055704;28;20143;-69
2021/12/26 08:31:03;;;;;;;3.13;2.20;;;-6.20;99.90;;;;;;5055290;28;20123;-69
2021/12/26 08:33:29;;;;;;;2.67;1.85;;;-6.10;99.90;;;;;;5073886;28;20097;-69
2021/12/26 08:35:55;;;;;;;3.47;2.45;;;-6.00;99.90;;;;;;5055330;28;20055;-69
2021/12/26 08:38:21;;;;;;;6.10;2.17;;;-6.00;99.90;;;;;;5055434;28;20040;-69
2021/12/26 08:40:55;;;;;;;5.78;2.50;;;-5.90;99.90;;;;;;5056185;28;20048;-69
2021/12/26 08:43:22;;;;;;;2.80;1.80;;;-5.80;99.90;;;;;;5055150;28;20056;-69
2021/12/26 08:45:48;;;;;;;6.00;2.80;;;-5.80;99.90;;;;;;5056098;28;20036;-69
2021/12/26 08:48:15;;;;;;;5.35;2.85;;;-5.70;99.90;;;;;;5073704;28;20052;-69
2021/12/26 08:50:42;;;;;;;5.05;2.75;;;-5.70;99.90;;;;;;5051081;28;20048;-69
2021/12/26 08:53:08;;;;;;;6.38;3.08;;;-5.60;99.90;;;;;;5053907;28;20505;-69
2021/12/26 08:55:35;;;;;;;4.57;2.50;;;-5.50;99.90;;;;;;5053449;28;20116;-69
2021/12/26 08:58:01;;;;;;;15.45;2.45;;;-5.50;99.90;;;;;;5060421;28;20044;-69
2021/12/26 09:00:27;;;;;;;4.75;2.80;;;-5.40;99.90;;;;;;5073544;28;20052;-69
2021/12/26 09:02:53;;;;;;;3.78;2.40;;;-5.30;99.90;;;;;;5073582;28;20051;-69
2021/12/26 09:05:20;;;;;;;9.43;3.47;;;-5.30;99.90;;;;;;5072370;28;20102;-69
2021/12/26 09:07:45;;;;;;;5.78;2.58;;;-5.20;99.90;;;;;;5073619;28;20385;-69
2021/12/26 09:10:13;;;;;;;6.22;3.05;;;-5.20;99.90;;;;;;5073535;28;20044;-69
2021/12/26 09:12:39;;;;;;;5.50;2.35;;;-5.10;99.90;;;;;;5054529;28;20040;-69
2021/12/26 09:15:07;;;;;;;6.20;2.97;;;-5.10;99.90;;;;;;5073544;28;20072;-69
2021/12/26 09:17:33;;;;;;;9.20;4.03;;;-5.00;99.90;;;;;;5055326;28;20102;-70
2021/12/26 09:19:59;;;;;;;3.80;2.70;;;-5.00;99.90;;;;;;5072007;28;20408;-70
2021/12/26 09:22:25;;;;;;;5.40;1.80;;;-4.90;99.90;;;;;;5073151;28;20041;-69
2021/12/26 09:24:51;;;;;;;4.30;2.70;;;-4.90;99.90;;;;;;5055543;28;20048;-69
2021/12/26 09:27:18;;;;;;;4.20;2.42;;;-4.80;99.90;;;;;;5054511;28;20057;-70
2021/12/26 09:29:44;;;;;;;4.97;2.88;;;-4.70;99.90;;;;;;5073354;28;20044;-70
2021/12/26 09:32:10;;;;;;;4.00;2.35;;;-4.70;99.90;;;;;;5073145;28;20127;-70
2021/12/26 09:34:37;;;;;;;5.72;3.20;;;-4.60;99.90;;;;;;5072350;28;20052;-69
2021/12/26 09:37:06;;;;;;;3.75;2.28;;;-4.50;99.90;;;;;;5073001;28;20044;-70
2021/12/26 09:39:33;;;;;;;4.32;2.92;;;-4.50;99.90;;;;;;5056886;28;20049;-70
2021/12/26 09:41:59;;;;;;;4.88;2.75;;;-4.40;99.90;;;;;;5077169;28;20080;-69
2021/12/26 09:44:25;;;;;;;4.82;2.35;;;-4.30;99.90;;;;;;5077091;28;20148;-70
2021/12/26 09:46:51;;;;;;;5.05;2.15;;;-4.10;99.90;;;;;;5058119;28;20048;-69
2021/12/26 09:49:17;;;;;;;5.82;2.50;;;-4.20;99.90;;;;;;5058764;28;20052;-70
2021/12/26 09:51:44;;;;;;;3.92;2.58;;;-4.10;99.90;;;;;;5077093;28;20046;-69
2021/12/26 09:54:10;;;;;;;4.30;2.75;;;-3.80;99.90;;;;;;5058292;28;20036;-69
2021/12/26 09:56:35;;;;;;;5.32;2.40;;;-4.00;99.90;;;;;;5076933;28;20159;-69
2021/12/26 09:59:07;;;;;;;3.63;2.30;;;-4.00;99.90;;;;;;5076758;28;20111;-70
2021/12/26 10:01:36;;;;;;;5.60;2.15;;;-4.00;99.90;;;;;;5075962;28;20399;-70
2021/12/26 10:04:23;;;;;;;4.03;2.55;;;-4.00;99.90;;;;;;5076473;28;20040;-69
2021/12/26 10:06:57;;;;;;;5.43;2.40;;;-4.00;99.90;;;;;;5076948;28;20539;-69
2021/12/26 10:09:23;;;;;;;3.03;2.22;;;-3.90;99.90;;;;;;5057570;28;20048;-69
2021/12/26 10:11:52;;;;;;;4.90;2.20;;;-3.90;99.90;;;;;;5076688;28;20135;-69
2021/12/26 10:14:28;;;;;;;4.15;2.78;;;-3.80;99.90;;;;;;5058746;28;20048;-70
2021/12/26 10:17:06;;;;;;;3.17;2.28;;;-3.80;99.90;;;;;;5058818;28;20044;-70
2021/12/26 10:19:33;;;;;;;5.30;2.45;;;-3.80;99.90;;;;;;5054435;28;20491;-70
2021/12/26 10:22:03;;;;;;;3.85;2.50;;;-3.20;99.90;;;;;;5054398;28;20057;-69
2021/12/26 10:24:32;;;;;;;4.45;2.55;;;-3.70;99.90;;;;;;5055228;28;20170;-70
2021/12/26 10:27:01;;;;;;;5.53;2.95;;;-3.30;99.90;;;;;;5055338;28;20059;-70
2021/12/26 10:29:33;;;;;;;5.68;2.42;;;-3.50;99.90;;;;;;5054348;28;20048;-69
2021/12/26 10:32:05;;;;;;;5.13;2.85;;;-3.50;99.90;;;;;;5055065;28;20489;-70
2021/12/26 10:34:35;;;;;;;4.50;2.30;;;-3.40;99.90;;;;;;5055948;28;20571;-70
2021/12/26 10:37:05;;;;;;;4.78;3.15;;;-3.40;99.90;;;;;;5055272;28;20562;-70
2021/12/26 10:39:38;;;;;;;4.20;2.28;;;-3.40;99.90;;;;;;5056862;28;20063;-70
2021/12/26 10:42:08;;;;;;;3.92;2.40;;;-3.30;99.90;;;;;;5056185;28;20037;-70
2021/12/26 10:44:38;;;;;;;4.50;2.20;;;-3.30;99.90;;;;;;5054139;28;20080;-70
2021/12/26 10:47:07;;;;;;;5.32;2.15;;;-3.10;99.90;;;;;;5056107;28;20067;-70
2021/12/26 10:49:42;;;;;;;4.85;2.22;;;-3.20;99.90;;;;;;5055037;28;20082;-70
2021/12/26 10:52:15;;;;;;;6.53;3.63;;;-3.10;99.90;;;;;;5054605;28;20055;-70
2021/12/26 10:54:44;;;;;;;5.70;2.65;;;-3.10;99.90;;;;;;5055930;28;20115;-71
2021/12/26 10:57:20;;;;;;;5.20;2.42;;;-3.00;99.90;;;;;;5053804;28;20049;-70
2021/12/26 10:59:48;;;;;;;4.70;2.35;;;-3.00;99.90;;;;;;5055877;28;20124;-70
2021/12/26 11:02:22;;;;;;;5.43;2.90;;;-2.90;99.90;;;;;;5054641;28;20041;-70
2021/12/26 11:05:18;;;;;;;3.28;2.42;;;-2.90;99.90;;;;;;5054503;28;20049;-70
2021/12/26 11:07:47;;;;;;;4.70;2.80;;;-2.80;99.90;;;;;;5052757;28;20053;-70
2021/12/26 11:10:38;;;;;;;4.68;2.78;;;-2.80;99.90;;;;;;5055627;28;20041;-70
2021/12/26 11:13:08;;;;;;;6.10;2.80;;;-2.80;99.90;;;;;;5044126;28;20103;-71
2021/12/26 11:15:39;;;;;;;4.60;2.38;;;-2.70;99.90;;;;;;5055493;28;20049;-70
2021/12/26 11:18:10;;;;;;;3.75;2.70;;;-2.60;99.90;;;;;;5053080;28;20826;-71
2021/12/26 11:21:07;;;;;;;5.00;2.58;;;-2.40;99.90;;;;;;5055223;28;20460;-70
2021/12/26 11:23:36;;;;;;;7.10;2.47;;;-2.50;99.90;;;;;;5052989;28;20057;-71
2021/12/26 11:26:06;;;;;;;4.43;2.50;;;-2.50;99.90;;;;;;5053355;28;20049;-71
2021/12/26 11:28:36;;;;;;;4.53;2.88;;;-2.40;99.90;;;;;;5054328;28;20075;-70
2021/12/26 11:31:02;;;;;;;4.13;2.80;;;-2.10;99.90;;;;;;5055073;28;20107;-70
2021/12/26 11:33:28;;;;;;;3.95;2.60;;;-2.30;99.90;;;;;;5054304;28;20053;-70
2021/12/26 11:35:55;;;;;;;3.75;2.58;;;-2.20;99.90;;;;;;5054946;28;20109;-70
2021/12/26 11:38:23;;;;;;;4.70;2.63;;;-2.20;99.90;;;;;;5055106;28;20044;-71
2021/12/26 11:40:50;;;;;;;8.85;2.60;;;-2.10;99.90;;;;;;5054296;28;20087;-71
2021/12/26 11:44:03;;;;;;;3.70;2.55;;;-1.70;99.90;;;;;;5054603;28;20392;-70
2021/12/26 11:46:41;;;;;;;3.95;2.78;;;-1.90;99.90;;;;;;4992990;28;20068;-71
2021/12/26 11:49:30;;;;;;;4.97;3.03;;;-1.80;99.90;;;;;;5054677;28;20396;-70
2021/12/26 11:52:22;;;;;;;5.85;2.83;;;-1.70;99.90;;;;;;5054809;28;20059;-70
2021/12/26 11:55:11;;;;;;;11.90;6.32;;;-1.40;99.90;;;;;;5054012;28;20049;-71
2021/12/26 11:58:14;;;;;;;18.23;9.20;;;-1.60;99.90;;;;;;5054641;28;20076;-71
2021/12/26 12:00:49;;;;;;;10.85;5.57;;;-1.50;99.90;;;;;;5053489;28;20106;-71
2021/12/26 12:03:17;;;;;;;3.78;2.65;;;-1.40;99.90;;;;;;5053968;28;20048;-71
2021/12/26 12:05:44;;;;;;;5.25;3.00;;;-1.40;99.90;;;;;;5054159;28;20041;-71
2021/12/26 12:08:22;;;;;;;4.75;2.90;;;-1.40;99.90;;;;;;5053538;28;20056;-71
2021/12/26 12:10:54;;;;;;;4.10;3.08;;;-1.30;99.90;;;;;;5054337;28;20489;-71
2021/12/26 12:13:43;;;;;;;5.57;3.08;;;-1.20;99.90;;;;;;5054339;28;20396;-71
2021/12/26 12:16:11;;;;;;;4.25;2.80;;;-1.20;99.90;;;;;;5053554;28;20052;-71
2021/12/26 12:18:38;;;;;;;4.88;2.80;;;-1.10;99.90;;;;;;5062951;28;20174;-71
2021/12/26 12:21:41;;;;;;;4.60;3.17;;;-0.20;99.90;;;;;;5051802;28;20061;-70
2021/12/26 12:24:13;;;;;;;5.72;3.17;;;-1.00;99.90;;;;;;5036262;28;20404;-70
2021/12/26 12:26:42;;;;;;;4.18;3.22;;;-1.10;99.90;;;;;;5054167;28;20087;-71
2021/12/26 12:29:09;;;;;;;7.03;3.05;;;-0.50;99.90;;;;;;5069627;28;20044;-71
2021/12/26 12:31:36;;;;;;;5.88;3.28;;;-1.10;99.90;;;;;;5073854;28;20064;-71
2021/12/26 12:34:08;;;;;;;5.53;3.17;;;-1.10;99.90;;;;;;5073793;28;20050;-71
2021/12/26 12:36:38;;;;;;;5.70;3.75;;;-1.10;99.90;;;;;;5055170;28;20052;-71
2021/12/26 12:39:15;;;;;;;6.90;2.95;;;-1.10;99.90;;;;;;5074082;28;20087;-71
2021/12/26 12:41:52;;;;;;;4.18;2.47;;;-0.80;99.90;;;;;;5055998;28;20488;-71
2021/12/26 12:44:27;;;;;;;8.60;2.78;;;-0.70;99.90;;;;;;5055117;28;20490;-71
2021/12/26 12:47:00;;;;;;;;;;;-1.20;99.90;;;;;;5074253;28;20188;-70
2021/12/26 12:49:45;;;;;;;3.33;2.50;;;-1.20;99.90;;;;;;5072719;28;19926;-71
2021/12/26 12:52:40;;;;;;;4.13;2.63;;;-1.00;99.90;;;;;;5073308;28;20048;-71
2021/12/26 12:55:42;;;;;;;13.93;7.22;;;-1.10;99.90;;;;;;5053618;28;20392;-71
2021/12/26 12:58:23;;;;;;;6.70;3.70;;;-1.10;99.90;;;;;;5034570;28;20120;-71
2021/12/26 13:00:49;;;;;;;7.05;3.38;;;-1.10;99.90;;;;;;5035591;28;20044;-71